createdAt,value
2019-01-11T00:01:01.307Z,8.68
2019-01-11T00:06:56.343Z,8.95
2019-01-11T00:12:51.298Z,8.93
2019-01-11T00:18:46.304Z,8.41
2019-01-11T00:24:41.357Z,8.51
2019-01-11T00:30:36.297Z,8.49
2019-01-11T00:36:31.387Z,7.45
2019-01-11T00:42:26.320Z,8.44
2019-01-11T00:48:21.333Z,8.2
2019-01-11T00:54:16.321Z,7.42
2019-01-11T01:00:11.342Z,8.04
2019-01-11T01:06:06.344Z,7.44
2019-01-11T01:12:01.340Z,8.09
2019-01-11T01:17:56.376Z,8.36
2019-01-11T01:23:51.374Z,8.13
2019-01-11T01:29:46.335Z,8.01
2019-01-11T01:35:41.349Z,7.74
2019-01-11T01:41:36.358Z,8.17
2019-01-11T01:47:31.386Z,8.08
2019-01-11T01:53:26.356Z,8.1
2019-01-11T01:59:21.335Z,7.86
2019-01-11T02:05:16.395Z,8.11
2019-01-11T02:11:11.364Z,7.82
2019-01-11T02:17:06.363Z,6.95
2019-01-11T02:23:01.367Z,7.21
2019-01-11T02:28:56.353Z,6.78
2019-01-11T02:34:51.395Z,6.33
2019-01-11T02:40:46.399Z,6.2
2019-01-11T02:46:41.372Z,7.05
2019-01-11T02:52:36.389Z,6.28
2019-01-11T02:58:31.395Z,4.22
2019-01-11T03:04:26.389Z,5.62
2019-01-11T03:10:21.397Z,4.91
2019-01-11T03:16:16.435Z,6.76
2019-01-11T03:22:11.389Z,6.92
2019-01-11T03:28:06.475Z,7.07
2019-01-11T03:34:01.387Z,6.79
2019-01-11T03:39:56.419Z,6.21
2019-01-11T03:45:51.399Z,7.11
2019-01-11T03:51:46.458Z,7.93
2019-01-11T03:57:41.418Z,6.56
2019-01-11T04:03:36.445Z,7.23
2019-01-11T04:09:31.462Z,7.05
2019-01-11T04:15:26.446Z,6.6
2019-01-11T04:21:21.413Z,6.64
2019-01-11T04:27:16.477Z,7.09
2019-01-11T04:33:11.426Z,7.24
2019-01-11T04:39:06.453Z,7.23
2019-01-11T04:45:01.447Z,6.47
2019-01-11T04:50:56.441Z,6.25
2019-01-11T04:56:51.441Z,6.57
2019-01-11T05:02:46.432Z,5.49
2019-01-11T05:08:41.468Z,5.58
2019-01-11T05:14:36.465Z,5.07
2019-01-11T05:20:31.446Z,5.26
2019-01-11T05:26:26.484Z,5.54
2019-01-11T05:32:21.459Z,4.95
2019-01-11T05:38:16.474Z,4.96
2019-01-11T05:44:11.466Z,4.8
2019-01-11T05:50:06.473Z,4.62
2019-01-11T05:56:01.496Z,5.14
2019-01-11T06:01:56.484Z,4.18
2019-01-11T06:07:51.500Z,4.14
2019-01-11T06:13:46.520Z,4.97
2019-01-11T06:19:41.533Z,4.55
2019-01-11T06:25:36.527Z,4.6
2019-01-11T06:31:31.506Z,4.69
2019-01-11T06:37:26.480Z,5.43
2019-01-11T06:43:21.558Z,4.3
2019-01-11T06:49:16.518Z,4.58
2019-01-11T06:55:11.493Z,4.15
2019-01-11T07:01:06.563Z,4.51
2019-01-11T07:07:01.566Z,5.27
2019-01-11T07:12:56.546Z,4.67
2019-01-11T07:18:51.544Z,4.93
2019-01-11T07:24:46.518Z,5.03
2019-01-11T07:30:41.542Z,10.28
2019-01-11T07:36:36.521Z,12.71
2019-01-11T07:42:31.549Z,5.97
2019-01-11T07:48:26.513Z,5.19
2019-01-11T07:54:21.580Z,4.82
2019-01-11T08:00:16.534Z,6.97
2019-01-11T08:06:11.527Z,6.76
2019-01-11T08:12:06.563Z,5.85
2019-01-11T08:18:01.574Z,6.32
2019-01-11T08:23:56.556Z,6.68
2019-01-11T08:29:51.567Z,7.88
2019-01-11T08:35:46.576Z,7.25
2019-01-11T08:41:41.589Z,7.63
2019-01-11T08:47:36.573Z,8.63
2019-01-11T08:53:31.573Z,5.12
2019-01-11T08:59:26.580Z,10.06
2019-01-11T09:05:21.568Z,10.75
2019-01-11T09:11:16.622Z,9.88
2019-01-11T09:17:11.589Z,8.04
2019-01-11T09:23:06.604Z,9.37
2019-01-11T09:29:01.646Z,9.63
2019-01-11T09:34:56.580Z,8.61
2019-01-11T09:40:51.591Z,9.42
2019-01-11T09:46:46.625Z,6.55
2019-01-11T09:52:41.583Z,8.04
2019-01-11T09:58:36.613Z,7.72
2019-01-11T10:04:31.606Z,8.49
2019-01-11T10:10:26.599Z,7.72
2019-01-11T10:16:21.633Z,7.84
2019-01-11T10:22:16.641Z,6.47
2019-01-11T10:28:11.695Z,9.37
2019-01-11T10:34:06.619Z,8.15
2019-01-11T10:40:01.621Z,6.22
2019-01-11T10:45:56.645Z,4.49
2019-01-11T10:51:51.633Z,5.15
2019-01-11T10:57:46.618Z,6
2019-01-11T11:03:41.647Z,5.28
2019-01-11T11:09:36.635Z,6.31
2019-01-11T11:15:31.645Z,3.73
2019-01-11T11:21:26.672Z,5.37
2019-01-11T11:27:21.692Z,6.28
2019-01-11T11:33:16.670Z,2.39
2019-01-11T11:39:11.659Z,11.16
2019-01-11T11:45:06.665Z,2.53
2019-01-11T11:51:01.657Z,2.38
2019-01-11T11:56:56.701Z,2.82
2019-01-11T12:02:51.674Z,3.29
2019-01-11T12:08:46.669Z,2.26
2019-01-11T12:14:41.690Z,1.71
2019-01-11T12:20:36.677Z,2.84
2019-01-11T12:26:31.752Z,2.17
2019-01-11T12:32:26.675Z,2.25
2019-01-11T12:38:21.679Z,2.82
2019-01-11T12:44:16.740Z,3.59
2019-01-11T12:50:11.689Z,2.22
2019-01-11T12:56:06.681Z,1.67
2019-01-11T13:02:01.689Z,2.42
2019-01-11T13:07:56.695Z,3.83
2019-01-11T13:13:51.708Z,3.14
2019-01-11T13:19:46.714Z,2.82
2019-01-11T13:25:41.739Z,2.06
2019-01-11T13:31:36.788Z,2.97
2019-01-11T13:37:31.732Z,5.28
2019-01-11T13:43:26.717Z,7.27
2019-01-11T13:49:21.726Z,5.11
2019-01-11T13:55:16.753Z,2.39
2019-01-11T14:01:11.745Z,3.63
2019-01-11T14:07:06.760Z,2.46
2019-01-11T14:13:01.754Z,1.53
2019-01-11T14:18:56.772Z,2.41
2019-01-11T14:24:51.765Z,3.22
2019-01-11T14:30:46.763Z,2.25
2019-01-11T14:36:41.766Z,1.77
2019-01-11T14:42:36.789Z,2.6
2019-01-11T14:48:31.764Z,2.81
2019-01-11T14:54:26.770Z,1.86
2019-01-11T15:00:21.770Z,2.36
2019-01-11T15:06:16.853Z,3.27
2019-01-11T15:12:11.788Z,3.09
2019-01-11T15:18:06.778Z,3.18
2019-01-11T15:24:01.791Z,3.73
2019-01-11T15:29:56.776Z,3.17
2019-01-11T15:35:51.783Z,3.85
2019-01-11T15:41:46.810Z,6.26
2019-01-11T15:47:41.795Z,4.24
2019-01-11T15:53:36.842Z,5.14
2019-01-11T15:59:31.782Z,5.79
2019-01-11T16:05:26.810Z,4.05
2019-01-11T16:11:21.836Z,5.04
2019-01-11T16:17:16.807Z,3.99
2019-01-11T16:23:11.807Z,4.63
2019-01-11T16:29:06.832Z,5.06
2019-01-11T16:35:01.811Z,6.23
2019-01-11T16:40:56.815Z,6.27
2019-01-11T16:46:51.846Z,5.55
2019-01-11T16:52:46.826Z,5.83
2019-01-11T16:58:41.892Z,7.01
2019-01-11T17:04:36.875Z,6.71
2019-01-11T17:10:31.880Z,8
2019-01-11T17:16:26.837Z,6.72
2019-01-11T17:22:21.883Z,6.74
2019-01-11T17:28:16.865Z,6.67
2019-01-11T17:34:11.883Z,8.9
2019-01-11T17:40:06.915Z,10.57
2019-01-11T17:46:01.853Z,9.11
2019-01-11T17:51:56.871Z,12.22
2019-01-11T17:57:51.882Z,12.11
2019-01-11T18:03:46.868Z,11.68
2019-01-11T18:09:41.914Z,12.75
2019-01-11T18:15:36.891Z,11.5
2019-01-11T18:21:31.884Z,11.69
2019-01-11T18:27:26.877Z,15.09
2019-01-11T18:33:21.897Z,16.66
2019-01-11T18:39:16.902Z,17.76
2019-01-11T18:45:11.909Z,16.17
2019-01-11T18:51:06.933Z,19.06
2019-01-11T18:57:01.934Z,17.27
2019-01-11T19:02:56.902Z,21.14
2019-01-11T19:08:51.908Z,19.54
2019-01-11T19:14:46.926Z,20.6
2019-01-11T19:20:41.958Z,22.05
2019-01-11T19:26:36.936Z,21.52
2019-01-11T19:32:31.961Z,21.27
2019-01-11T19:38:26.924Z,21.61
2019-01-11T19:50:16.953Z,21.39
2019-01-11T19:50:16.998Z,22.32
2019-01-11T19:56:11.937Z,23.63
2019-01-11T20:02:06.989Z,24.12
2019-01-11T20:08:01.932Z,24.9
2019-01-11T20:13:56.947Z,24.28
2019-01-11T20:19:51.971Z,23.4
2019-01-11T20:25:46.963Z,21.7
2019-01-11T20:31:41.973Z,21.86
2019-01-11T20:37:36.959Z,19.95
2019-01-11T20:43:31.987Z,17.06
2019-01-11T20:49:26.990Z,16.4
2019-01-11T20:55:21.978Z,15.27
2019-01-11T21:01:16.988Z,18.05
2019-01-11T21:07:12.074Z,14.06
2019-01-11T21:13:06.992Z,11.73
2019-01-11T21:19:01.992Z,13.28
2019-01-11T21:25:00.195Z,14.19
2019-01-11T21:30:57.191Z,12.05
2019-01-11T21:36:47.032Z,9.78
2019-01-11T21:42:41.989Z,8.94
2019-01-11T21:48:36.995Z,7.67
2019-01-11T21:54:32.009Z,10.35
2019-01-11T22:00:27.020Z,8.71
2019-01-11T22:06:22.023Z,9
2019-01-11T22:12:17.012Z,9.32
2019-01-11T22:18:12.014Z,9.07
2019-01-11T22:24:07.074Z,8.47
2019-01-11T22:30:02.032Z,9.35
2019-01-11T22:35:57.018Z,8.65
2019-01-11T22:41:52.029Z,9.7
2019-01-11T22:47:47.077Z,10.27
2019-01-11T22:53:42.034Z,9.24
2019-01-11T22:59:37.074Z,8.85
2019-01-11T23:05:32.075Z,9.31
2019-01-11T23:11:27.030Z,9.16
2019-01-11T23:17:22.067Z,9.38
2019-01-11T23:23:17.045Z,8.7
2019-01-11T23:29:12.074Z,9.11
2019-01-11T23:35:07.032Z,10.81
2019-01-11T23:41:02.080Z,9.34
2019-01-11T23:46:57.054Z,7.8
2019-01-11T23:52:52.052Z,7.97
2019-01-11T23:58:47.070Z,6.67
